sensor_id;sensor_type;location;lat;lon;timestamp;pressure;altitude;pressure_sealevel;temperature;humidity
804;BME280;25687;49.976;8.240;2023-04-05T00:00:37;100826.91;;;1.04;100.00
804;BME280;25687;49.976;8.240;2023-04-05T00:03:03;100822.78;;;0.86;100.00
804;BME280;25687;49.976;8.240;2023-04-05T00:05:28;100823.59;;;0.88;100.00
804;BME280;25687;49.976;8.240;2023-04-05T00:07:57;100827.81;;;0.93;100.00
804;BME280;25687;49.976;8.240;2023-04-05T00:10:25;100824.44;;;0.90;100.00
804;BME280;25687;49.976;8.240;2023-04-05T00:12:51;100832.03;;;0.90;100.00
804;BME280;25687;49.976;8.240;2023-04-05T00:15:16;100829.50;;;0.88;100.00
804;BME280;25687;49.976;8.240;2023-04-05T00:17:43;100837.97;;;0.75;100.00
804;BME280;25687;49.976;8.240;2023-04-05T00:20:09;100837.97;;;0.78;100.00
804;BME280;25687;49.976;8.240;2023-04-05T00:22:35;100825.28;;;0.83;100.00
804;BME280;25687;49.976;8.240;2023-04-05T00:25:01;100832.03;;;0.80;100.00
804;BME280;25687;49.976;8.240;2023-04-05T00:27:27;100826.16;;;0.80;100.00
804;BME280;25687;49.976;8.240;2023-04-05T00:29:52;100822.75;;;0.83;100.00
804;BME280;25687;49.976;8.240;2023-04-05T00:32:17;100821.91;;;0.80;100.00
804;BME280;25687;49.976;8.240;2023-04-05T00:34:43;100821.06;;;0.86;100.00
804;BME280;25687;49.976;8.240;2023-04-05T00:37:08;100816.84;;;0.90;100.00
804;BME280;25687;49.976;8.240;2023-04-05T00:39:33;100821.06;;;0.86;100.00
804;BME280;25687;49.976;8.240;2023-04-05T00:42:01;100819.38;;;0.87;100.00
804;BME280;25687;49.976;8.240;2023-04-05T00:44:27;100816.00;;;0.86;100.00
804;BME280;25687;49.976;8.240;2023-04-05T00:46:53;100820.25;;;0.79;100.00
804;BME280;25687;49.976;8.240;2023-04-05T00:49:19;100820.31;;;0.55;100.00
804;BME280;25687;49.976;8.240;2023-04-05T00:51:44;100824.50;;;0.63;100.00
804;BME280;25687;49.976;8.240;2023-04-05T00:54:10;100816.91;;;0.59;100.00
804;BME280;25687;49.976;8.240;2023-04-05T00:56:36;100823.66;;;0.57;100.00
804;BME280;25687;49.976;8.240;2023-04-05T00:59:01;100811.84;;;0.50;100.00
804;BME280;25687;49.976;8.240;2023-04-05T01:01:26;100811.88;;;0.46;100.00
804;BME280;25687;49.976;8.240;2023-04-05T01:03:56;100811.00;;;0.38;100.00
804;BME280;25687;49.976;8.240;2023-04-05T01:06:41;100804.28;;;0.28;100.00
804;BME280;25687;49.976;8.240;2023-04-05T01:09:08;100811.06;;;0.21;100.00
804;BME280;25687;49.976;8.240;2023-04-05T01:11:38;100804.28;;;0.28;100.00
804;BME280;25687;49.976;8.240;2023-04-05T01:14:04;100806.81;;;0.26;100.00
804;BME280;25687;49.976;8.240;2023-04-05T01:16:29;100802.63;;;0.24;100.00
804;BME280;25687;49.976;8.240;2023-04-05T01:18:55;100795.03;;;0.24;100.00
804;BME280;25687;49.976;8.240;2023-04-05T01:24:19;100799.25;;;0.08;100.00
804;BME280;25687;49.976;8.240;2023-04-05T01:27:13;100795.00;;;0.02;100.00
804;BME280;25687;49.976;8.240;2023-04-05T01:29:50;100785.75;;;-0.01;100.00
804;BME280;25687;49.976;8.240;2023-04-05T01:32:29;100789.09;;;-0.08;100.00
804;BME280;25687;49.976;8.240;2023-04-05T01:35:04;100784.88;;;-0.10;100.00
804;BME280;25687;49.976;8.240;2023-04-05T01:37:34;100778.16;;;-0.14;100.00
804;BME280;25687;49.976;8.240;2023-04-05T01:40:02;100778.13;;;-0.24;100.00
804;BME280;25687;49.976;8.240;2023-04-05T01:42:29;100773.91;;;-0.20;100.00
804;BME280;25687;49.976;8.240;2023-04-05T01:44:56;100773.91;;;-0.26;100.00
804;BME280;25687;49.976;8.240;2023-04-05T01:47:21;100772.22;;;-0.37;100.00
804;BME280;25687;49.976;8.240;2023-04-05T01:49:46;100773.88;;;-0.45;100.00
804;BME280;25687;49.976;8.240;2023-04-05T01:52:12;100768.84;;;-0.48;100.00
804;BME280;25687;49.976;8.240;2023-04-05T01:54:37;100773.06;;;-0.53;100.00
804;BME280;25687;49.976;8.240;2023-04-05T01:57:03;100779.78;;;-0.52;100.00
804;BME280;25687;49.976;8.240;2023-04-05T01:59:28;100773.91;;;-0.50;100.00
804;BME280;25687;49.976;8.240;2023-04-05T02:01:54;100768.81;;;-0.57;100.00
804;BME280;25687;49.976;8.240;2023-04-05T02:04:19;100768.81;;;-0.59;100.00
804;BME280;25687;49.976;8.240;2023-04-05T02:06:45;100766.28;;;-0.57;100.00
804;BME280;25687;49.976;8.240;2023-04-05T02:09:10;100762.91;;;-0.66;100.00
804;BME280;25687;49.976;8.240;2023-04-05T02:11:35;100766.25;;;-0.70;100.00
804;BME280;25687;49.976;8.240;2023-04-05T02:14:01;100762.03;;;-0.74;100.00
804;BME280;25687;49.976;8.240;2023-04-05T02:16:26;100768.78;;;-0.80;100.00
804;BME280;25687;49.976;8.240;2023-04-05T02:18:54;100765.38;;;-0.79;100.00
804;BME280;25687;49.976;8.240;2023-04-05T02:21:22;100763.72;;;-0.79;100.00
804;BME280;25687;49.976;8.240;2023-04-05T02:23:48;100769.59;;;-0.85;100.00
804;BME280;25687;49.976;8.240;2023-04-05T02:26:13;100770.41;;;-0.89;100.00
804;BME280;25687;49.976;8.240;2023-04-05T02:28:38;100773.81;;;-0.87;100.00
804;BME280;25687;49.976;8.240;2023-04-05T02:31:11;100769.56;;;-0.92;100.00
804;BME280;25687;49.976;8.240;2023-04-05T02:33:37;100764.56;;;-0.77;100.00
804;BME280;25687;49.976;8.240;2023-04-05T02:36:04;100760.34;;;-0.78;100.00
804;BME280;25687;49.976;8.240;2023-04-05T02:38:33;100767.06;;;-0.86;100.00
804;BME280;25687;49.976;8.240;2023-04-05T02:40:59;100761.16;;;-0.90;100.00
804;BME280;25687;49.976;8.240;2023-04-05T02:43:24;100756.09;;;-0.93;100.00
804;BME280;25687;49.976;8.240;2023-04-05T02:45:50;100756.91;;;-1.02;100.00
804;BME280;25687;49.976;8.240;2023-04-05T02:48:15;100756.88;;;-1.05;100.00
804;BME280;25687;49.976;8.240;2023-04-05T02:50:41;100755.16;;;-1.10;100.00
804;BME280;25687;49.976;8.240;2023-04-05T02:53:06;100761.88;;;-1.17;100.00
804;BME280;25687;49.976;8.240;2023-04-05T02:55:31;100760.22;;;-1.14;100.00
804;BME280;25687;49.976;8.240;2023-04-05T02:57:59;100755.19;;;-1.15;100.00
804;BME280;25687;49.976;8.240;2023-04-05T03:00:27;100754.31;;;-1.19;100.00
804;BME280;25687;49.976;8.240;2023-04-05T03:02:53;100748.41;;;-1.19;100.00
804;BME280;25687;49.976;8.240;2023-04-05T03:05:18;100744.16;;;-1.30;100.00
804;BME280;25687;49.976;8.240;2023-04-05T03:07:45;100752.59;;;-1.27;100.00
804;BME280;25687;49.976;8.240;2023-04-05T03:10:12;100755.91;;;-1.33;100.00
804;BME280;25687;49.976;8.240;2023-04-05T03:12:38;100746.66;;;-1.36;100.00
804;BME280;25687;49.976;8.240;2023-04-05T03:15:03;100752.56;;;-1.35;100.00
804;BME280;25687;49.976;8.240;2023-04-05T03:17:29;100751.69;;;-1.36;100.00
804;BME280;25687;49.976;8.240;2023-04-05T03:19:54;100762.66;;;-1.34;100.00
804;BME280;25687;49.976;8.240;2023-04-05T03:22:20;100757.56;;;-1.43;100.00
804;BME280;25687;49.976;8.240;2023-04-05T03:24:46;100749.16;;;-1.43;100.00
804;BME280;25687;49.976;8.240;2023-04-05T03:27:11;100754.19;;;-1.45;100.00
804;BME280;25687;49.976;8.240;2023-04-05T03:29:37;100760.06;;;-1.46;100.00
804;BME280;25687;49.976;8.240;2023-04-05T03:32:02;100756.66;;;-1.53;100.00
804;BME280;25687;49.976;8.240;2023-04-05T03:34:27;100749.94;;;-1.52;100.00
804;BME280;25687;49.976;8.240;2023-04-05T03:36:54;100749.94;;;-1.52;100.00
804;BME280;25687;49.976;8.240;2023-04-05T03:39:20;100736.47;;;-1.56;100.00
804;BME280;25687;49.976;8.240;2023-04-05T03:41:45;100742.25;;;-1.68;100.00
804;BME280;25687;49.976;8.240;2023-04-05T03:44:10;100742.25;;;-1.71;100.00
804;BME280;25687;49.976;8.240;2023-04-05T03:46:36;100735.53;;;-1.70;100.00
804;BME280;25687;49.976;8.240;2023-04-05T03:49:02;100742.31;;;-1.66;100.00
804;BME280;25687;49.976;8.240;2023-04-05T03:51:28;100733.03;;;-1.63;100.00
804;BME280;25687;49.976;8.240;2023-04-05T03:53:53;100743.13;;;-1.67;100.00
804;BME280;25687;49.976;8.240;2023-04-05T03:56:18;100744.78;;;-1.72;100.00
804;BME280;25687;49.976;8.240;2023-04-05T03:58:44;100742.22;;;-1.75;100.00
804;BME280;25687;49.976;8.240;2023-04-05T04:01:09;100732.97;;;-1.75;100.00
804;BME280;25687;49.976;8.240;2023-04-05T04:03:35;100731.31;;;-1.76;100.00
804;BME280;25687;49.976;8.240;2023-04-05T04:06:05;100732.09;;;-1.80;100.00
804;BME280;25687;49.976;8.240;2023-04-05T04:08:31;100734.63;;;-1.82;100.00
804;BME280;25687;49.976;8.240;2023-04-05T04:10:57;100743.00;;;-1.83;100.00
804;BME280;25687;49.976;8.240;2023-04-05T04:13:22;100737.13;;;-1.85;100.00
804;BME280;25687;49.976;8.240;2023-04-05T04:15:47;100741.28;;;-1.90;100.00
804;BME280;25687;49.976;8.240;2023-04-05T04:18:13;100747.19;;;-1.91;100.00
804;BME280;25687;49.976;8.240;2023-04-05T04:20:38;100747.97;;;-1.97;100.00
804;BME280;25687;49.976;8.240;2023-04-05T04:23:04;100750.44;;;-2.03;100.00
804;BME280;25687;49.976;8.240;2023-04-05T04:25:30;100748.75;;;-2.04;100.00
804;BME280;25687;49.976;8.240;2023-04-05T04:27:56;100745.38;;;-2.06;100.00
804;BME280;25687;49.976;8.240;2023-04-05T04:30:21;100747.03;;;-2.06;100.00
804;BME280;25687;49.976;8.240;2023-04-05T04:32:47;100736.09;;;-2.08;100.00
804;BME280;25687;49.976;8.240;2023-04-05T04:35:21;100741.13;;;-2.10;100.00
804;BME280;25687;49.976;8.240;2023-04-05T04:37:55;100733.56;;;-2.08;100.00
804;BME280;25687;49.976;8.240;2023-04-05T04:40:29;100736.19;;;-1.98;100.00
804;BME280;25687;49.976;8.240;2023-04-05T04:43:09;100740.41;;;-1.97;100.00
804;BME280;25687;49.976;8.240;2023-04-05T04:45:38;100743.75;;;-1.98;100.00
804;BME280;25687;49.976;8.240;2023-04-05T04:48:04;100738.72;;;-1.99;100.00
804;BME280;25687;49.976;8.240;2023-04-05T04:50:30;100733.66;;;-2.01;100.00
804;BME280;25687;49.976;8.240;2023-04-05T04:52:57;100738.66;;;-2.04;100.00
804;BME280;25687;49.976;8.240;2023-04-05T04:55:23;100739.53;;;-2.03;100.00
804;BME280;25687;49.976;8.240;2023-04-05T04:57:54;100738.72;;;-1.99;100.00
804;BME280;25687;49.976;8.240;2023-04-05T05:00:21;100737.88;;;-1.95;100.00
804;BME280;25687;49.976;8.240;2023-04-05T05:02:49;100749.66;;;-1.94;100.00
804;BME280;25687;49.976;8.240;2023-04-05T05:05:14;100742.97;;;-1.89;100.00
804;BME280;25687;49.976;8.240;2023-04-05T05:07:40;100747.19;;;-1.88;100.00
804;BME280;25687;49.976;8.240;2023-04-05T05:10:07;100753.09;;;-1.84;100.00
804;BME280;25687;49.976;8.240;2023-04-05T05:12:33;100747.22;;;-1.80;100.00
804;BME280;25687;49.976;8.240;2023-04-05T05:14:58;100752.31;;;-1.79;100.00
804;BME280;25687;49.976;8.240;2023-04-05T05:17:23;100754.88;;;-1.69;100.00
804;BME280;25687;49.976;8.240;2023-04-05T05:19:49;100757.41;;;-1.71;100.00
804;BME280;25687;49.976;8.240;2023-04-05T05:22:15;100750.69;;;-1.63;100.00
804;BME280;25687;49.976;8.240;2023-04-05T05:24:40;100749.88;;;-1.62;100.00
804;BME280;25687;49.976;8.240;2023-04-05T05:27:06;100747.38;;;-1.55;100.00
804;BME280;25687;49.976;8.240;2023-04-05T05:29:32;100744.06;;;-1.50;100.00
804;BME280;25687;49.976;8.240;2023-04-05T05:31:57;100747.50;;;-1.41;100.00
804;BME280;25687;49.976;8.240;2023-04-05T05:34:22;100752.56;;;-1.32;100.00
804;BME280;25687;49.976;8.240;2023-04-05T05:36:48;100745.03;;;-1.26;100.00
804;BME280;25687;49.976;8.240;2023-04-05T05:39:13;100754.31;;;-1.19;100.00
804;BME280;25687;49.976;8.240;2023-04-05T05:41:40;100739.19;;;-1.12;100.00
804;BME280;25687;49.976;8.240;2023-04-05T05:44:05;100743.41;;;-1.07;100.00
804;BME280;25687;49.976;8.240;2023-04-05T05:46:30;100745.13;;;-1.03;100.00
804;BME280;25687;49.976;8.240;2023-04-05T05:48:56;100746.00;;;-0.93;100.00
804;BME280;25687;49.976;8.240;2023-04-05T05:51:21;100742.66;;;-0.81;100.00
804;BME280;25687;49.976;8.240;2023-04-05T05:53:46;100746.06;;;-0.73;100.00
804;BME280;25687;49.976;8.240;2023-04-05T05:56:12;100748.59;;;-0.62;100.00
804;BME280;25687;49.976;8.240;2023-04-05T05:58:37;100751.13;;;-0.51;100.00
804;BME280;25687;49.976;8.240;2023-04-05T06:01:05;100746.97;;;-0.38;100.00
804;BME280;25687;49.976;8.240;2023-04-05T06:03:31;100750.34;;;-0.27;100.00
804;BME280;25687;49.976;8.240;2023-04-05T06:05:58;100757.06;;;-0.17;100.00
804;BME280;25687;49.976;8.240;2023-04-05T06:08:24;100752.03;;;-0.06;100.00
804;BME280;25687;49.976;8.240;2023-04-05T06:10:52;100749.50;;;0.05;100.00
804;BME280;25687;49.976;8.240;2023-04-05T06:13:17;100754.53;;;0.16;100.00
804;BME280;25687;49.976;8.240;2023-04-05T06:15:42;100752.84;;;0.23;100.00
804;BME280;25687;49.976;8.240;2023-04-05T06:18:08;100752.81;;;0.41;100.00
804;BME280;25687;49.976;8.240;2023-04-05T06:20:34;100748.53;;;0.59;100.00
804;BME280;25687;49.976;8.240;2023-04-05T06:23:04;100749.38;;;0.62;100.00
804;BME280;25687;49.976;8.240;2023-04-05T06:25:29;100749.34;;;0.79;100.00
804;BME280;25687;49.976;8.240;2023-04-05T06:27:55;100748.41;;;0.93;100.00
804;BME280;25687;49.976;8.240;2023-04-05T06:30:20;100752.56;;;1.08;100.00
804;BME280;25687;49.976;8.240;2023-04-05T06:32:45;100752.56;;;1.06;100.00
804;BME280;25687;49.976;8.240;2023-04-05T06:35:12;100752.53;;;1.14;100.00
804;BME280;25687;49.976;8.240;2023-04-05T06:37:37;100747.38;;;1.36;100.00
804;BME280;25687;49.976;8.240;2023-04-05T06:40:03;100746.22;;;1.78;100.00
804;BME280;25687;49.976;8.240;2023-04-05T06:42:28;100754.50;;;1.99;100.00
804;BME280;25687;49.976;8.240;2023-04-05T06:44:54;100745.56;;;2.50;99.55
804;BME280;25687;49.976;8.240;2023-04-05T06:47:19;100744.63;;;3.29;91.71
804;BME280;25687;49.976;8.240;2023-04-05T06:49:45;100746.28;;;3.86;83.65
804;BME280;25687;49.976;8.240;2023-04-05T06:52:10;100736.09;;;5.58;74.50
804;BME280;25687;49.976;8.240;2023-04-05T06:54:38;100734.91;;;8.10;59.00
804;BME280;25687;49.976;8.240;2023-04-05T06:57:03;100736.81;;;10.29;49.57
804;BME280;25687;49.976;8.240;2023-04-05T06:59:29;100733.00;;;10.40;44.94
804;BME280;25687;49.976;8.240;2023-04-05T07:01:55;100734.34;;;9.44;45.23
804;BME280;25687;49.976;8.240;2023-04-05T07:04:20;100737.97;;;8.70;47.25
804;BME280;25687;49.976;8.240;2023-04-05T07:06:46;100743.00;;;9.41;46.31
804;BME280;25687;49.976;8.240;2023-04-05T07:09:11;100744.38;;;10.13;43.56
804;BME280;25687;49.976;8.240;2023-04-05T07:11:37;100730.84;;;11.43;41.90
804;BME280;25687;49.976;8.240;2023-04-05T07:14:04;100731.59;;;11.28;41.57
804;BME280;25687;49.976;8.240;2023-04-05T07:16:30;100730.97;;;12.12;39.92
804;BME280;25687;49.976;8.240;2023-04-05T07:18:56;100728.38;;;10.67;41.00
804;BME280;25687;49.976;8.240;2023-04-05T07:21:22;100725.47;;;11.66;39.49
804;BME280;25687;49.976;8.240;2023-04-05T07:23:47;100725.13;;;11.73;39.48
804;BME280;25687;49.976;8.240;2023-04-05T07:26:12;100729.81;;;12.18;37.78
804;BME280;25687;49.976;8.240;2023-04-05T07:28:38;100726.06;;;10.99;39.49
804;BME280;25687;49.976;8.240;2023-04-05T07:31:05;100726.50;;;11.26;38.68
804;BME280;25687;49.976;8.240;2023-04-05T07:33:30;100715.47;;;11.42;38.47
804;BME280;25687;49.976;8.240;2023-04-05T07:35:56;100719.56;;;12.50;36.81
804;BME280;25687;49.976;8.240;2023-04-05T07:38:21;100718.41;;;13.03;35.58
804;BME280;25687;49.976;8.240;2023-04-05T07:40:48;100726.66;;;12.62;36.03
804;BME280;25687;49.976;8.240;2023-04-05T07:43:13;100732.56;;;11.79;35.89
804;BME280;25687;49.976;8.240;2023-04-05T07:45:39;100723.59;;;13.03;35.30
804;BME280;25687;49.976;8.240;2023-04-05T07:48:04;100722.09;;;13.62;33.72
804;BME280;25687;49.976;8.240;2023-04-05T07:50:30;100722.06;;;12.51;34.83
804;BME280;25687;49.976;8.240;2023-04-05T07:52:55;100717.47;;;13.36;34.86
804;BME280;25687;49.976;8.240;2023-04-05T07:55:20;100719.03;;;14.00;32.79
804;BME280;25687;49.976;8.240;2023-04-05T07:57:45;100730.31;;;11.54;34.82
804;BME280;25687;49.976;8.240;2023-04-05T08:00:11;100726.56;;;11.25;36.96
804;BME280;25687;49.976;8.240;2023-04-05T08:02:37;100734.06;;;12.68;35.31
804;BME280;25687;49.976;8.240;2023-04-05T08:05:03;100732.19;;;12.38;34.07
804;BME280;25687;49.976;8.240;2023-04-05T08:07:28;100728.88;;;12.52;33.04
804;BME280;25687;49.976;8.240;2023-04-05T08:09:53;100732.78;;;11.75;33.87
804;BME280;25687;49.976;8.240;2023-04-05T08:12:22;100721.00;;;11.87;34.51
804;BME280;25687;49.976;8.240;2023-04-05T08:14:47;100723.09;;;12.97;35.02
804;BME280;25687;49.976;8.240;2023-04-05T08:17:12;100717.31;;;12.43;33.56
804;BME280;25687;49.976;8.240;2023-04-05T08:19:39;100723.63;;;11.15;35.34
804;BME280;25687;49.976;8.240;2023-04-05T08:22:04;100721.72;;;11.19;35.75
804;BME280;25687;49.976;8.240;2023-04-05T08:24:29;100715.16;;;11.30;35.42
804;BME280;25687;49.976;8.240;2023-04-05T08:26:55;100718.47;;;13.34;32.89
804;BME280;25687;49.976;8.240;2023-04-05T08:29:20;100711.75;;;12.99;32.70
804;BME280;25687;49.976;8.240;2023-04-05T08:31:45;100713.56;;;13.90;30.75
804;BME280;25687;49.976;8.240;2023-04-05T08:34:10;100715.88;;;14.96;30.04
804;BME280;25687;49.976;8.240;2023-04-05T08:36:36;100707.19;;;14.82;29.50
804;BME280;25687;49.976;8.240;2023-04-05T08:39:02;100718.34;;;14.97;29.59
804;BME280;25687;49.976;8.240;2023-04-05T08:41:40;100721.19;;;12.35;31.90
804;BME280;25687;49.976;8.240;2023-04-05T08:44:09;100722.50;;;12.26;32.60
804;BME280;25687;49.976;8.240;2023-04-05T08:46:35;100716.91;;;13.47;30.11
804;BME280;25687;49.976;8.240;2023-04-05T08:49:07;100719.28;;;13.50;30.36
804;BME280;25687;49.976;8.240;2023-04-05T08:51:36;100711.34;;;12.91;31.92
804;BME280;25687;49.976;8.240;2023-04-05T08:54:03;100710.63;;;11.53;33.50
804;BME280;25687;49.976;8.240;2023-04-05T08:56:33;100712.84;;;11.61;33.32
804;BME280;25687;49.976;8.240;2023-04-05T08:59:04;100709.09;;;12.69;32.11
804;BME280;25687;49.976;8.240;2023-04-05T09:01:31;100698.69;;;12.86;32.74
804;BME280;25687;49.976;8.240;2023-04-05T09:04:05;100706.00;;;13.87;30.95
804;BME280;25687;49.976;8.240;2023-04-05T09:06:31;100703.88;;;13.49;31.15
804;BME280;25687;49.976;8.240;2023-04-05T09:08:57;100697.81;;;15.62;29.31
804;BME280;25687;49.976;8.240;2023-04-05T09:11:22;100700.81;;;15.69;28.36
804;BME280;25687;49.976;8.240;2023-04-05T09:13:48;100698.22;;;15.69;28.53
804;BME280;25687;49.976;8.240;2023-04-05T09:16:13;100692.38;;;17.17;26.60
804;BME280;25687;49.976;8.240;2023-04-05T09:18:40;100695.34;;;16.25;26.86
804;BME280;25687;49.976;8.240;2023-04-05T09:21:05;100712.69;;;14.06;29.80
804;BME280;25687;49.976;8.240;2023-04-05T09:23:33;100706.56;;;14.35;29.22
804;BME280;25687;49.976;8.240;2023-04-05T09:25:58;100698.31;;;15.27;27.86
804;BME280;25687;49.976;8.240;2023-04-05T09:28:39;100707.88;;;14.43;31.29
804;BME280;25687;49.976;8.240;2023-04-05T09:31:04;100692.91;;;15.70;27.81
804;BME280;25687;49.976;8.240;2023-04-05T09:33:30;100696.31;;;17.81;26.19
804;BME280;25687;49.976;8.240;2023-04-05T09:35:56;100689.72;;;15.67;26.32
804;BME280;25687;49.976;8.240;2023-04-05T09:38:41;100695.09;;;15.76;26.99
804;BME280;25687;49.976;8.240;2023-04-05T09:41:08;100705.25;;;13.40;29.83
804;BME280;25687;49.976;8.240;2023-04-05T09:43:36;100696.78;;;13.52;30.59
804;BME280;25687;49.976;8.240;2023-04-05T09:46:02;100697.06;;;14.65;28.80
804;BME280;25687;49.976;8.240;2023-04-05T09:48:46;100702.94;;;13.80;29.91
804;BME280;25687;49.976;8.240;2023-04-05T09:51:13;100690.53;;;15.67;29.07
804;BME280;25687;49.976;8.240;2023-04-05T09:53:59;100695.09;;;15.63;27.30
804;BME280;25687;49.976;8.240;2023-04-05T09:56:25;100685.31;;;16.44;26.52
804;BME280;25687;49.976;8.240;2023-04-05T09:58:51;100690.84;;;15.62;26.79
804;BME280;25687;49.976;8.240;2023-04-05T10:01:18;100691.47;;;13.70;29.14
804;BME280;25687;49.976;8.240;2023-04-05T10:03:48;100687.44;;;14.24;29.64
804;BME280;25687;49.976;8.240;2023-04-05T10:06:17;100684.69;;;13.37;30.36
804;BME280;25687;49.976;8.240;2023-04-05T10:08:45;100686.44;;;12.58;31.13
804;BME280;25687;49.976;8.240;2023-04-05T10:11:11;100678.22;;;14.19;29.58
804;BME280;25687;49.976;8.240;2023-04-05T10:13:39;100679.59;;;14.25;29.05
804;BME280;25687;49.976;8.240;2023-04-05T10:16:10;100674.13;;;14.44;28.32
804;BME280;25687;49.976;8.240;2023-04-05T10:18:48;100675.16;;;13.39;29.67
804;BME280;25687;49.976;8.240;2023-04-05T10:21:20;100678.44;;;12.63;31.20
804;BME280;25687;49.976;8.240;2023-04-05T10:23:48;100672.44;;;14.72;33.23
804;BME280;25687;49.976;8.240;2023-04-05T10:26:25;100670.41;;;15.71;29.13
804;BME280;25687;49.976;8.240;2023-04-05T10:29:00;100665.56;;;15.79;27.52
804;BME280;25687;49.976;8.240;2023-04-05T10:34:14;100658.91;;;16.51;26.43
804;BME280;25687;49.976;8.240;2023-04-05T10:37:01;100662.06;;;15.93;28.27
804;BME280;25687;49.976;8.240;2023-04-05T10:39:39;100674.44;;;13.35;29.52
804;BME280;25687;49.976;8.240;2023-04-05T10:42:14;100669.19;;;9.67;33.71
804;BME280;25687;49.976;8.240;2023-04-05T10:44:44;100667.88;;;8.93;35.31
804;BME280;25687;49.976;8.240;2023-04-05T10:47:13;100675.19;;;8.33;37.33
804;BME280;25687;49.976;8.240;2023-04-05T10:49:42;100669.88;;;8.14;38.08
804;BME280;25687;49.976;8.240;2023-04-05T10:52:10;100663.28;;;7.81;37.91
804;BME280;25687;49.976;8.240;2023-04-05T10:54:35;100655.16;;;7.95;38.26
804;BME280;25687;49.976;8.240;2023-04-05T10:57:08;100668.63;;;8.00;37.01
804;BME280;25687;49.976;8.240;2023-04-05T10:59:34;100660.78;;;7.54;37.38
804;BME280;25687;49.976;8.240;2023-04-05T11:02:01;100652.50;;;7.46;39.10
804;BME280;25687;49.976;8.240;2023-04-05T11:04:26;100655.66;;;7.80;38.36
804;BME280;25687;49.976;8.240;2023-04-05T11:07:17;100653.25;;;8.00;38.21
804;BME280;25687;49.976;8.240;2023-04-05T11:10:00;100657.31;;;8.06;38.36
804;BME280;25687;49.976;8.240;2023-04-05T11:18:20;100646.31;;;7.79;37.54
804;BME280;25687;49.976;8.240;2023-04-05T11:20:51;100643.84;;;7.75;37.12
804;BME280;25687;49.976;8.240;2023-04-05T11:23:19;100641.34;;;7.99;38.01
804;BME280;25687;49.976;8.240;2023-04-05T11:25:46;100638.63;;;8.04;38.30
804;BME280;25687;49.976;8.240;2023-04-05T11:28:41;100629.69;;;7.90;37.94
804;BME280;25687;49.976;8.240;2023-04-05T11:31:19;100625.63;;;8.08;37.62
804;BME280;25687;49.976;8.240;2023-04-05T11:36:12;100628.41;;;8.02;37.51
804;BME280;25687;49.976;8.240;2023-04-05T11:38:42;100621.78;;;7.71;37.82
804;BME280;25687;49.976;8.240;2023-04-05T11:41:16;100619.44;;;7.65;37.98
804;BME280;25687;49.976;8.240;2023-04-05T11:43:44;100620.03;;;7.97;38.20
804;BME280;25687;49.976;8.240;2023-04-05T11:46:12;100619.59;;;7.86;36.76
804;BME280;25687;49.976;8.240;2023-04-05T11:48:37;100608.69;;;8.04;37.54
804;BME280;25687;49.976;8.240;2023-04-05T11:51:09;100618.59;;;7.90;36.42
804;BME280;25687;49.976;8.240;2023-04-05T11:53:36;100610.66;;;7.98;36.09
804;BME280;25687;49.976;8.240;2023-04-05T11:56:11;100608.41;;;8.36;37.93
804;BME280;25687;49.976;8.240;2023-04-05T11:58:39;100604.25;;;8.57;36.50
804;BME280;25687;49.976;8.240;2023-04-05T12:01:06;100595.25;;;8.69;38.19
804;BME280;25687;49.976;8.240;2023-04-05T12:03:32;100589.34;;;8.43;36.77
804;BME280;25687;49.976;8.240;2023-04-05T12:05:59;100591.25;;;8.62;38.57
804;BME280;25687;49.976;8.240;2023-04-05T12:11:02;100588.53;;;9.09;37.75
804;BME280;25687;49.976;8.240;2023-04-05T12:13:33;100588.78;;;9.03;36.43
804;BME280;25687;49.976;8.240;2023-04-05T12:16:05;100573.44;;;8.79;36.47
804;BME280;25687;49.976;8.240;2023-04-05T12:18:33;100585.81;;;8.46;37.37
804;BME280;25687;49.976;8.240;2023-04-05T12:21:01;100584.22;;;8.43;37.96
804;BME280;25687;49.976;8.240;2023-04-05T12:23:27;100578.00;;;8.27;38.44
804;BME280;25687;49.976;8.240;2023-04-05T12:25:54;100581.19;;;8.10;38.11
804;BME280;25687;49.976;8.240;2023-04-05T12:28:21;100577.53;;;8.39;39.34
804;BME280;25687;49.976;8.240;2023-04-05T12:30:51;100580.56;;;8.95;38.63
804;BME280;25687;49.976;8.240;2023-04-05T12:33:28;100569.66;;;8.90;37.05
804;BME280;25687;49.976;8.240;2023-04-05T12:35:54;100566.47;;;8.61;37.47
804;BME280;25687;49.976;8.240;2023-04-05T12:38:20;100562.22;;;8.82;37.53
804;BME280;25687;49.976;8.240;2023-04-05T12:40:51;100572.41;;;8.39;38.11
804;BME280;25687;49.976;8.240;2023-04-05T12:43:16;100571.63;;;8.37;38.39
804;BME280;25687;49.976;8.240;2023-04-05T12:45:44;100565.25;;;8.25;38.81
804;BME280;25687;49.976;8.240;2023-04-05T12:48:13;100560.91;;;8.51;38.17
804;BME280;25687;49.976;8.240;2023-04-05T12:50:43;100555.34;;;8.38;38.97
804;BME280;25687;49.976;8.240;2023-04-05T12:53:21;100545.28;;;8.57;37.64
804;BME280;25687;49.976;8.240;2023-04-05T12:55:51;100553.34;;;8.00;38.75
804;BME280;25687;49.976;8.240;2023-04-05T12:58:17;100548.13;;;8.49;38.87
804;BME280;25687;49.976;8.240;2023-04-05T13:00:42;100551.03;;;8.84;38.35
804;BME280;25687;49.976;8.240;2023-04-05T13:03:15;100533.94;;;9.06;37.98
804;BME280;25687;49.976;8.240;2023-04-05T13:05:41;100530.34;;;9.10;37.44
804;BME280;25687;49.976;8.240;2023-04-05T13:08:06;100532.47;;;9.20;37.88
804;BME280;25687;49.976;8.240;2023-04-05T13:10:32;100524.84;;;9.59;37.59
804;BME280;25687;49.976;8.240;2023-04-05T13:12:57;100525.94;;;9.53;37.89
804;BME280;25687;49.976;8.240;2023-04-05T13:15:22;100519.94;;;9.73;36.87
804;BME280;25687;49.976;8.240;2023-04-05T13:17:48;100522.06;;;9.44;35.69
804;BME280;25687;49.976;8.240;2023-04-05T13:20:17;100522.75;;;9.48;36.13
804;BME280;25687;49.976;8.240;2023-04-05T13:22:43;100521.47;;;9.37;36.19
804;BME280;25687;49.976;8.240;2023-04-05T13:25:09;100516.53;;;9.12;36.23
804;BME280;25687;49.976;8.240;2023-04-05T13:27:34;100511.16;;;9.18;37.17